Terminal Aerodrome Forecast
Issued by NWS Tuscon, AZ

Home | Current Version | Previous Version | Text Only | Print | Product List | Glossary On
Versions: 1 2 3 4 5 6 7 8 9 10 11 12 13 14 15
000
FTUS45 KTWC 242320
TAFTUS
TAF
KTUS 242320Z 2500/2524 32008KT P6SM SKC
     FM250500 14006KT P6SM FEW250
     FM251800 26006KT P6SM SCT250
     FM252100 29013G20KT P6SM BKN250=

USA.gov is the U.S. government's official web portal to all federal, state and local government web resources and services.